sensor_id;sensor_type;location;lat;lon;timestamp;pressure;altitude;pressure_sealevel;temperature;humidity
12349;BME280;5974;42.710;27.258;2024-01-30T00:01:10;102261.19;;;2.39;100.00
12349;BME280;5974;42.710;27.258;2024-01-30T00:03:36;102265.41;;;2.37;100.00
12349;BME280;5974;42.710;27.258;2024-01-30T00:06:03;102269.81;;;2.40;100.00
12349;BME280;5974;42.710;27.258;2024-01-30T00:08:30;102275.91;;;2.43;100.00
12349;BME280;5974;42.710;27.258;2024-01-30T00:10:58;102256.19;;;2.45;100.00
12349;BME280;5974;42.710;27.258;2024-01-30T00:13:26;102250.97;;;2.44;100.00
12349;BME280;5974;42.710;27.258;2024-01-30T00:15:52;102262.09;;;2.41;100.00
12349;BME280;5974;42.710;27.258;2024-01-30T00:18:19;102267.25;;;2.41;100.00
12349;BME280;5974;42.710;27.258;2024-01-30T00:20:46;102259.19;;;2.62;100.00
12349;BME280;5974;42.710;27.258;2024-01-30T00:23:13;102251.84;;;2.44;100.00
12349;BME280;5974;42.710;27.258;2024-01-30T00:25:40;102259.41;;;2.37;100.00
12349;BME280;5974;42.710;27.258;2024-01-30T00:28:08;102251.69;;;2.38;100.00
12349;BME280;5974;42.710;27.258;2024-01-30T00:30:35;102254.44;;;2.44;100.00
12349;BME280;5974;42.710;27.258;2024-01-30T00:33:01;102257.81;;;2.42;100.00
12349;BME280;5974;42.710;27.258;2024-01-30T00:35:28;102267.81;;;2.62;100.00
12349;BME280;5974;42.710;27.258;2024-01-30T00:37:55;102281.50;;;2.58;100.00
12349;BME280;5974;42.710;27.258;2024-01-30T00:40:22;102275.88;;;2.73;100.00
12349;BME280;5974;42.710;27.258;2024-01-30T00:42:48;102280.00;;;2.66;100.00
12349;BME280;5974;42.710;27.258;2024-01-30T00:45:16;102272.97;;;2.61;100.00
12349;BME280;5974;42.710;27.258;2024-01-30T00:47:43;102272.09;;;2.60;100.00
12349;BME280;5974;42.710;27.258;2024-01-30T00:50:11;102274.81;;;2.66;100.00
12349;BME280;5974;42.710;27.258;2024-01-30T00:52:37;102277.56;;;2.41;100.00
12349;BME280;5974;42.710;27.258;2024-01-30T00:55:07;102273.31;;;2.43;100.00
12349;BME280;5974;42.710;27.258;2024-01-30T00:57:33;102278.31;;;2.37;100.00
12349;BME280;5974;42.710;27.258;2024-01-30T01:00:00;102267.91;;;2.34;100.00
12349;BME280;5974;42.710;27.258;2024-01-30T01:02:28;102259.91;;;2.24;100.00
12349;BME280;5974;42.710;27.258;2024-01-30T01:04:55;102263.53;;;2.30;100.00
12349;BME280;5974;42.710;27.258;2024-01-30T01:07:22;102258.31;;;2.29;100.00
12349;BME280;5974;42.710;27.258;2024-01-30T01:09:48;102259.25;;;2.31;100.00
12349;BME280;5974;42.710;27.258;2024-01-30T01:12:15;102256.56;;;2.28;100.00
12349;BME280;5974;42.710;27.258;2024-01-30T01:14:42;102251.41;;;2.28;100.00
12349;BME280;5974;42.710;27.258;2024-01-30T01:17:09;102238.44;;;2.26;100.00
12349;BME280;5974;42.710;27.258;2024-01-30T01:19:36;102237.75;;;2.32;100.00
12349;BME280;5974;42.710;27.258;2024-01-30T01:22:03;102237.16;;;2.42;100.00
12349;BME280;5974;42.710;27.258;2024-01-30T01:24:31;102221.63;;;2.40;100.00
12349;BME280;5974;42.710;27.258;2024-01-30T01:26:58;102213.94;;;2.42;100.00
12349;BME280;5974;42.710;27.258;2024-01-30T01:29:25;102215.69;;;2.43;100.00
12349;BME280;5974;42.710;27.258;2024-01-30T01:31:54;102212.00;;;2.33;100.00
12349;BME280;5974;42.710;27.258;2024-01-30T01:34:21;102241.19;;;2.32;100.00
12349;BME280;5974;42.710;27.258;2024-01-30T01:36:50;102225.78;;;2.34;100.00
12349;BME280;5974;42.710;27.258;2024-01-30T01:39:21;102225.78;;;2.34;100.00
12349;BME280;5974;42.710;27.258;2024-01-30T01:41:49;102217.97;;;2.32;100.00
12349;BME280;5974;42.710;27.258;2024-01-30T01:44:15;102231.91;;;2.39;100.00
12349;BME280;5974;42.710;27.258;2024-01-30T01:46:42;102240.78;;;2.48;100.00
12349;BME280;5974;42.710;27.258;2024-01-30T01:49:09;102236.41;;;2.46;100.00
12349;BME280;5974;42.710;27.258;2024-01-30T01:51:36;102236.38;;;2.44;100.00
12349;BME280;5974;42.710;27.258;2024-01-30T01:54:08;102240.69;;;2.45;100.00
12349;BME280;5974;42.710;27.258;2024-01-30T01:56:35;102237.91;;;2.38;100.00
12349;BME280;5974;42.710;27.258;2024-01-30T01:59:05;102232.63;;;2.33;100.00
12349;BME280;5974;42.710;27.258;2024-01-30T02:01:32;102228.34;;;2.34;100.00
12349;BME280;5974;42.710;27.258;2024-01-30T02:04:00;102226.53;;;2.31;100.00
12349;BME280;5974;42.710;27.258;2024-01-30T02:06:27;102227.56;;;2.38;100.00
12349;BME280;5974;42.710;27.258;2024-01-30T02:08:53;102236.41;;;2.46;100.00
12349;BME280;5974;42.710;27.258;2024-01-30T02:11:22;102236.03;;;2.32;100.00
12349;BME280;5974;42.710;27.258;2024-01-30T02:13:49;102225.72;;;2.32;100.00
12349;BME280;5974;42.710;27.258;2024-01-30T02:16:16;102231.03;;;2.38;100.00
12349;BME280;5974;42.710;27.258;2024-01-30T02:18:43;102228.19;;;2.28;100.00
12349;BME280;5974;42.710;27.258;2024-01-30T02:21:14;102238.59;;;2.31;100.00
12349;BME280;5974;42.710;27.258;2024-01-30T02:23:42;102231.03;;;2.38;100.00
12349;BME280;5974;42.710;27.258;2024-01-30T02:26:09;102236.19;;;2.38;100.00
12349;BME280;5974;42.710;27.258;2024-01-30T02:28:36;102247.88;;;2.24;100.00
12349;BME280;5974;42.710;27.258;2024-01-30T02:31:03;102232.56;;;2.32;100.00
12349;BME280;5974;42.710;27.258;2024-01-30T02:33:30;102211.81;;;2.27;100.00
12349;BME280;5974;42.710;27.258;2024-01-30T02:35:57;102209.25;;;2.27;100.00
12349;BME280;5974;42.710;27.258;2024-01-30T02:38:25;102209.94;;;2.22;100.00
12349;BME280;5974;42.710;27.258;2024-01-30T02:40:54;102209.91;;;2.20;100.00
12349;BME280;5974;42.710;27.258;2024-01-30T02:43:21;102199.66;;;2.23;100.00
12349;BME280;5974;42.710;27.258;2024-01-30T02:45:47;102198.88;;;2.26;100.00
12349;BME280;5974;42.710;27.258;2024-01-30T02:48:14;102206.66;;;2.27;100.00
12349;BME280;5974;42.710;27.258;2024-01-30T02:50:41;102206.75;;;2.30;100.00
12349;BME280;5974;42.710;27.258;2024-01-30T02:53:07;102205.88;;;2.31;100.00
12349;BME280;5974;42.710;27.258;2024-01-30T02:55:36;102199.59;;;2.20;100.00
12349;BME280;5974;42.710;27.258;2024-01-30T02:58:03;102181.63;;;2.25;100.00
12349;BME280;5974;42.710;27.258;2024-01-30T03:00:29;102189.34;;;2.23;100.00
12349;BME280;5974;42.710;27.258;2024-01-30T03:02:56;102193.59;;;2.21;100.00
12349;BME280;5974;42.710;27.258;2024-01-30T03:05:23;102199.59;;;2.20;100.00
12349;BME280;5974;42.710;27.258;2024-01-30T03:07:50;102186.97;;;2.31;100.00
12349;BME280;5974;42.710;27.258;2024-01-30T03:10:17;102195.22;;;2.17;100.00
12349;BME280;5974;42.710;27.258;2024-01-30T03:12:45;102189.97;;;2.14;100.00
12349;BME280;5974;42.710;27.258;2024-01-30T03:15:12;102210.44;;;2.08;100.00
12349;BME280;5974;42.710;27.258;2024-01-30T03:17:38;102209.56;;;2.08;100.00
12349;BME280;5974;42.710;27.258;2024-01-30T03:20:06;102201.00;;;2.09;100.00
12349;BME280;5974;42.710;27.258;2024-01-30T03:22:33;102202.53;;;2.02;100.00
12349;BME280;5974;42.710;27.258;2024-01-30T03:25:00;102200.13;;;2.08;100.00
12349;BME280;5974;42.710;27.258;2024-01-30T03:27:26;102217.97;;;2.01;100.00
12349;BME280;5974;42.710;27.258;2024-01-30T03:29:55;102206.69;;;1.97;100.00
12349;BME280;5974;42.710;27.258;2024-01-30T03:32:22;102200.66;;;1.97;100.00
12349;BME280;5974;42.710;27.258;2024-01-30T03:34:48;102209.41;;;2.02;100.00
12349;BME280;5974;42.710;27.258;2024-01-30T03:37:14;102204.16;;;1.99;100.00
12349;BME280;5974;42.710;27.258;2024-01-30T03:39:41;102208.34;;;1.95;100.00
12349;BME280;5974;42.710;27.258;2024-01-30T03:42:08;102211.81;;;1.96;100.00
12349;BME280;5974;42.710;27.258;2024-01-30T03:44:35;102206.66;;;1.96;100.00
12349;BME280;5974;42.710;27.258;2024-01-30T03:47:03;102199.91;;;2.01;100.00
12349;BME280;5974;42.710;27.258;2024-01-30T03:49:30;102212.88;;;2.04;100.00
12349;BME280;5974;42.710;27.258;2024-01-30T03:51:56;102199.34;;;2.11;100.00
12349;BME280;5974;42.710;27.258;2024-01-30T03:54:23;102198.28;;;2.04;100.00
12349;BME280;5974;42.710;27.258;2024-01-30T03:56:50;102203.38;;;2.01;100.00
12349;BME280;5974;42.710;27.258;2024-01-30T03:59:16;102193.13;;;2.04;100.00
12349;BME280;5974;42.710;27.258;2024-01-30T04:01:47;102195.69;;;2.03;100.00
12349;BME280;5974;42.710;27.258;2024-01-30T04:04:15;102210.38;;;2.07;100.00
12349;BME280;5974;42.710;27.258;2024-01-30T04:06:42;102206.09;;;2.07;100.00
12349;BME280;5974;42.710;27.258;2024-01-30T04:09:09;102189.75;;;2.07;100.00
12349;BME280;5974;42.710;27.258;2024-01-30T04:11:36;102190.69;;;2.09;100.00
12349;BME280;5974;42.710;27.258;2024-01-30T04:14:03;102200.06;;;2.07;100.00
12349;BME280;5974;42.710;27.258;2024-01-30T04:16:29;102199.34;;;2.12;100.00
12349;BME280;5974;42.710;27.258;2024-01-30T04:18:58;102211.31;;;2.09;100.00
12349;BME280;5974;42.710;27.258;2024-01-30T04:21:26;102204.28;;;2.03;100.00
12349;BME280;5974;42.710;27.258;2024-01-30T04:23:53;102210.19;;;1.99;100.00
12349;BME280;5974;42.710;27.258;2024-01-30T04:26:19;102215.22;;;1.95;100.00
12349;BME280;5974;42.710;27.258;2024-01-30T04:28:46;102216.16;;;1.97;100.00
12349;BME280;5974;42.710;27.258;2024-01-30T04:31:13;102224.72;;;1.97;100.00
12349;BME280;5974;42.710;27.258;2024-01-30T04:33:40;102232.47;;;1.97;100.00
12349;BME280;5974;42.710;27.258;2024-01-30T04:36:08;102219.53;;;1.96;100.00
12349;BME280;5974;42.710;27.258;2024-01-30T04:38:37;102211.00;;;1.97;100.00
12349;BME280;5974;42.710;27.258;2024-01-30T04:41:04;102211.81;;;1.96;100.00
12349;BME280;5974;42.710;27.258;2024-01-30T04:43:31;102210.84;;;1.92;100.00
12349;BME280;5974;42.710;27.258;2024-01-30T04:45:58;102213.66;;;2.00;100.00
12349;BME280;5974;42.710;27.258;2024-01-30T04:48:24;102214.56;;;2.02;100.00
12349;BME280;5974;42.710;27.258;2024-01-30T04:50:51;102214.66;;;2.05;100.00
12349;BME280;5974;42.710;27.258;2024-01-30T04:53:18;102223.91;;;1.98;100.00
12349;BME280;5974;42.710;27.258;2024-01-30T04:55:46;102215.34;;;1.99;100.00
12349;BME280;5974;42.710;27.258;2024-01-30T04:58:13;102208.59;;;2.04;100.00
12349;BME280;5974;42.710;27.258;2024-01-30T05:00:39;102216.44;;;2.07;100.00
12349;BME280;5974;42.710;27.258;2024-01-30T05:03:06;102220.84;;;2.11;100.00
12349;BME280;5974;42.710;27.258;2024-01-30T05:05:33;102225.84;;;2.05;100.00
12349;BME280;5974;42.710;27.258;2024-01-30T05:08:00;102222.38;;;2.05;100.00
12349;BME280;5974;42.710;27.258;2024-01-30T05:10:26;102217.97;;;2.01;100.00
12349;BME280;5974;42.710;27.258;2024-01-30T05:12:55;102210.22;;;2.01;100.00
12349;BME280;5974;42.710;27.258;2024-01-30T05:15:22;102222.50;;;2.09;100.00
12349;BME280;5974;42.710;27.258;2024-01-30T05:17:48;102212.06;;;2.05;100.00
12349;BME280;5974;42.710;27.258;2024-01-30T05:20:16;102218.28;;;2.11;100.00
12349;BME280;5974;42.710;27.258;2024-01-30T05:22:43;102192.16;;;2.01;100.00
12349;BME280;5974;42.710;27.258;2024-01-30T05:25:11;102219.97;;;2.11;100.00
12349;BME280;5974;42.710;27.258;2024-01-30T05:27:38;102216.69;;;2.16;100.00
12349;BME280;5974;42.710;27.258;2024-01-30T05:30:07;102232.78;;;2.08;100.00
12349;BME280;5974;42.710;27.258;2024-01-30T05:32:34;102237.28;;;2.15;100.00
12349;BME280;5974;42.710;27.258;2024-01-30T05:35:01;102227.06;;;2.18;100.00
12349;BME280;5974;42.710;27.258;2024-01-30T05:37:28;102234.81;;;2.19;100.00
12349;BME280;5974;42.710;27.258;2024-01-30T05:39:55;102245.22;;;2.23;100.00
12349;BME280;5974;42.710;27.258;2024-01-30T05:42:21;102240.22;;;2.27;100.00
12349;BME280;5974;42.710;27.258;2024-01-30T05:44:48;102246.19;;;2.26;100.00
12349;BME280;5974;42.710;27.258;2024-01-30T05:47:16;102260.00;;;2.28;100.00
12349;BME280;5974;42.710;27.258;2024-01-30T05:49:43;102264.41;;;2.31;100.00
12349;BME280;5974;42.710;27.258;2024-01-30T05:52:09;102265.25;;;2.31;100.00
12349;BME280;5974;42.710;27.258;2024-01-30T05:54:36;102264.69;;;2.41;100.00
12349;BME280;5974;42.710;27.258;2024-01-30T05:57:03;102261.13;;;2.38;100.00
12349;BME280;5974;42.710;27.258;2024-01-30T05:59:30;102264.66;;;2.40;100.00
12349;BME280;5974;42.710;27.258;2024-01-30T06:01:57;102267.41;;;2.46;100.00
12349;BME280;5974;42.710;27.258;2024-01-30T06:04:25;102267.34;;;2.44;100.00
12349;BME280;5974;42.710;27.258;2024-01-30T06:06:51;102270.09;;;2.50;100.00
12349;BME280;5974;42.710;27.258;2024-01-30T06:09:18;102276.16;;;2.52;100.00
12349;BME280;5974;42.710;27.258;2024-01-30T06:11:45;102286.31;;;2.46;100.00
12349;BME280;5974;42.710;27.258;2024-01-30T06:14:12;102280.06;;;2.37;100.00
12349;BME280;5974;42.710;27.258;2024-01-30T06:16:38;102292.28;;;2.44;100.00
12349;BME280;5974;42.710;27.258;2024-01-30T06:19:05;102286.41;;;2.49;100.00
12349;BME280;5974;42.710;27.258;2024-01-30T06:21:33;102294.13;;;2.48;100.00
12349;BME280;5974;42.710;27.258;2024-01-30T06:24:02;102283.78;;;2.48;100.00
12349;BME280;5974;42.710;27.258;2024-01-30T06:26:29;102282.91;;;2.47;100.00
12349;BME280;5974;42.710;27.258;2024-01-30T06:28:55;102276.06;;;2.49;100.00
12349;BME280;5974;42.710;27.258;2024-01-30T06:31:22;102277.03;;;2.53;100.00
12349;BME280;5974;42.710;27.258;2024-01-30T06:33:49;102278.88;;;2.57;100.00
12349;BME280;5974;42.710;27.258;2024-01-30T06:36:16;102280.41;;;2.50;100.00
12349;BME280;5974;42.710;27.258;2024-01-30T06:38:44;102280.47;;;2.52;100.00
12349;BME280;5974;42.710;27.258;2024-01-30T06:41:10;102281.22;;;2.49;100.00
12349;BME280;5974;42.710;27.258;2024-01-30T06:43:37;102275.13;;;2.46;100.00
12349;BME280;5974;42.710;27.258;2024-01-30T06:46:04;102274.41;;;2.51;100.00
12349;BME280;5974;42.710;27.258;2024-01-30T06:48:30;102280.47;;;2.52;100.00
12349;BME280;5974;42.710;27.258;2024-01-30T06:50:57;102271.63;;;2.44;100.00
12349;BME280;5974;42.710;27.258;2024-01-30T06:53:24;102283.81;;;2.49;100.00
12349;BME280;5974;42.710;27.258;2024-01-30T06:55:53;102283.00;;;2.50;100.00
12349;BME280;5974;42.710;27.258;2024-01-30T06:58:19;102299.59;;;2.60;100.00
12349;BME280;5974;42.710;27.258;2024-01-30T07:00:46;102294.22;;;2.52;100.00
12349;BME280;5974;42.710;27.258;2024-01-30T07:03:13;102285.72;;;2.55;100.00
12349;BME280;5974;42.710;27.258;2024-01-30T07:05:40;102295.09;;;2.53;100.00
12349;BME280;5974;42.710;27.258;2024-01-30T07:08:06;102285.78;;;2.58;100.00
12349;BME280;5974;42.710;27.258;2024-01-30T07:10:33;102298.66;;;2.56;100.00
12349;BME280;5974;42.710;27.258;2024-01-30T07:13:02;102293.56;;;2.59;100.00
12349;BME280;5974;42.710;27.258;2024-01-30T07:15:29;102288.31;;;2.56;100.00
12349;BME280;5974;42.710;27.258;2024-01-30T07:17:56;102284.78;;;2.53;100.00
12349;BME280;5974;42.710;27.258;2024-01-30T07:20:23;102285.66;;;2.53;100.00
12349;BME280;5974;42.710;27.258;2024-01-30T07:22:49;102290.19;;;2.62;100.00
12349;BME280;5974;42.710;27.258;2024-01-30T07:25:16;102288.25;;;2.53;100.00
12349;BME280;5974;42.710;27.258;2024-01-30T07:27:43;102289.78;;;2.47;100.00
12349;BME280;5974;42.710;27.258;2024-01-30T07:30:12;102288.94;;;2.48;100.00
12349;BME280;5974;42.710;27.258;2024-01-30T07:32:39;102286.38;;;2.48;100.00
12349;BME280;5974;42.710;27.258;2024-01-30T07:35:06;102283.81;;;2.49;100.00
12349;BME280;5974;42.710;27.258;2024-01-30T07:37:32;102277.28;;;2.62;100.00
12349;BME280;5974;42.710;27.258;2024-01-30T07:39:59;102276.75;;;2.73;100.00
12349;BME280;5974;42.710;27.258;2024-01-30T07:42:26;102278.56;;;2.78;100.00
12349;BME280;5974;42.710;27.258;2024-01-30T07:44:53;102280.53;;;2.88;100.00
12349;BME280;5974;42.710;27.258;2024-01-30T07:47:21;102281.66;;;2.97;100.00
12349;BME280;5974;42.710;27.258;2024-01-30T07:49:47;102285.78;;;2.91;100.00
12349;BME280;5974;42.710;27.258;2024-01-30T07:52:14;102274.25;;;2.78;100.00
12349;BME280;5974;42.710;27.258;2024-01-30T07:54:47;102285.63;;;2.85;100.00
12349;BME280;5974;42.710;27.258;2024-01-30T07:57:14;102272.56;;;2.79;100.00
12349;BME280;5974;42.710;27.258;2024-01-30T07:59:42;102271.81;;;2.83;100.00
12349;BME280;5974;42.710;27.258;2024-01-30T08:02:10;102288.53;;;2.97;100.00
12349;BME280;5974;42.710;27.258;2024-01-30T08:04:38;102291.75;;;2.88;100.00
12349;BME280;5974;42.710;27.258;2024-01-30T08:07:05;102296.59;;;3.09;100.00
12349;BME280;5974;42.710;27.258;2024-01-30T08:09:32;102294.44;;;3.25;100.00
12349;BME280;5974;42.710;27.258;2024-01-30T08:11:59;102293.25;;;3.13;100.00
12349;BME280;5974;42.710;27.258;2024-01-30T08:14:25;102290.97;;;3.26;100.00
12349;BME280;5974;42.710;27.258;2024-01-30T08:16:52;102279.88;;;3.31;100.00
12349;BME280;5974;42.710;27.258;2024-01-30T08:19:19;102290.50;;;3.41;100.00
12349;BME280;5974;42.710;27.258;2024-01-30T08:21:47;102290.13;;;3.26;100.00
12349;BME280;5974;42.710;27.258;2024-01-30T08:24:13;102290.28;;;3.32;100.00
12349;BME280;5974;42.710;27.258;2024-01-30T08:26:40;102299.88;;;3.38;100.00
12349;BME280;5974;42.710;27.258;2024-01-30T08:29:07;102317.19;;;3.42;100.00
12349;BME280;5974;42.710;27.258;2024-01-30T08:31:34;102296.09;;;3.61;100.00
12349;BME280;5974;42.710;27.258;2024-01-30T08:34:01;102298.53;;;3.91;100.00
12349;BME280;5974;42.710;27.258;2024-01-30T08:36:28;102299.22;;;3.83;100.00
12349;BME280;5974;42.710;27.258;2024-01-30T08:38:56;102318.72;;;3.69;100.00
12349;BME280;5974;42.710;27.258;2024-01-30T08:41:22;102297.75;;;3.57;100.00
12349;BME280;5974;42.710;27.258;2024-01-30T08:43:49;102298.63;;;3.58;100.00
12349;BME280;5974;42.710;27.258;2024-01-30T08:46:17;102294.06;;;3.48;100.00
12349;BME280;5974;42.710;27.258;2024-01-30T08:48:44;102293.53;;;3.61;100.00
12349;BME280;5974;42.710;27.258;2024-01-30T08:51:11;102301.25;;;3.59;100.00
12349;BME280;5974;42.710;27.258;2024-01-30T08:53:37;102296.63;;;3.46;100.00
12349;BME280;5974;42.710;27.258;2024-01-30T08:56:06;102304.56;;;3.54;100.00
12349;BME280;5974;42.710;27.258;2024-01-30T08:58:33;102302.78;;;3.51;100.00
12349;BME280;5974;42.710;27.258;2024-01-30T09:01:00;102303.91;;;3.62;100.00
12349;BME280;5974;42.710;27.258;2024-01-30T09:03:29;102311.53;;;3.56;100.00
12349;BME280;5974;42.710;27.258;2024-01-30T09:05:55;102308.09;;;3.57;100.00
12349;BME280;5974;42.710;27.258;2024-01-30T09:08:22;102307.81;;;3.45;100.00
12349;BME280;5974;42.710;27.258;2024-01-30T09:10:49;102303.22;;;3.32;100.00
12349;BME280;5974;42.710;27.258;2024-01-30T09:13:17;102293.16;;;3.44;100.00
12349;BME280;5974;42.710;27.258;2024-01-30T09:15:44;102301.00;;;3.49;100.00
12349;BME280;5974;42.710;27.258;2024-01-30T09:18:11;102304.75;;;3.61;100.00
12349;BME280;5974;42.710;27.258;2024-01-30T09:20:38;102303.72;;;3.53;100.00
12349;BME280;5974;42.710;27.258;2024-01-30T09:23:04;102302.63;;;3.44;100.00
12349;BME280;5974;42.710;27.258;2024-01-30T09:25:31;102306.72;;;3.71;100.00
12349;BME280;5974;42.710;27.258;2024-01-30T09:27:59;102297.94;;;4.04;100.00
12349;BME280;5974;42.710;27.258;2024-01-30T09:30:27;102296.84;;;3.93;100.00
12349;BME280;5974;42.710;27.258;2024-01-30T09:32:54;102306.28;;;3.91;100.00
12349;BME280;5974;42.710;27.258;2024-01-30T09:35:20;102279.63;;;3.95;100.00
12349;BME280;5974;42.710;27.258;2024-01-30T09:37:47;102293.25;;;3.86;100.00
12349;BME280;5974;42.710;27.258;2024-01-30T09:40:14;102280.63;;;4.01;100.00
12349;BME280;5974;42.710;27.258;2024-01-30T09:42:46;102271.91;;;3.98;100.00
12349;BME280;5974;42.710;27.258;2024-01-30T09:45:14;102301.69;;;4.18;100.00
12349;BME280;5974;42.710;27.258;2024-01-30T09:47:44;102278.28;;;4.12;100.00
12349;BME280;5974;42.710;27.258;2024-01-30T09:50:12;102294.31;;;3.97;100.00
12349;BME280;5974;42.710;27.258;2024-01-30T09:52:39;102281.94;;;4.23;100.00
12349;BME280;5974;42.710;27.258;2024-01-30T09:55:07;102277.00;;;4.35;100.00
12349;BME280;5974;42.710;27.258;2024-01-30T09:57:34;102273.50;;;3.91;100.00
12349;BME280;5974;42.710;27.258;2024-01-30T10:00:01;102270.91;;;3.91;100.00
12349;BME280;5974;42.710;27.258;2024-01-30T10:02:28;102256.50;;;4.04;100.00
12349;BME280;5974;42.710;27.258;2024-01-30T10:04:56;102258.69;;;4.26;100.00
12349;BME280;5974;42.710;27.258;2024-01-30T10:07:23;102255.47;;;4.37;100.00
12349;BME280;5974;42.710;27.258;2024-01-30T10:09:49;102262.22;;;4.29;100.00
12349;BME280;5974;42.710;27.258;2024-01-30T10:12:16;102266.06;;;4.50;100.00
12349;BME280;5974;42.710;27.258;2024-01-30T10:14:43;102256.84;;;4.65;100.00
12349;BME280;5974;42.710;27.258;2024-01-30T10:17:11;102262.34;;;4.35;100.00
12349;BME280;5974;42.710;27.258;2024-01-30T10:19:38;102275.75;;;4.15;100.00
12349;BME280;5974;42.710;27.258;2024-01-30T10:22:07;102257.19;;;3.94;100.00
12349;BME280;5974;42.710;27.258;2024-01-30T10:24:34;102257.34;;;4.01;100.00
12349;BME280;5974;42.710;27.258;2024-01-30T10:27:01;102252.16;;;4.01;100.00
12349;BME280;5974;42.710;27.258;2024-01-30T10:29:28;102240.56;;;4.26;100.00
12349;BME280;5974;42.710;27.258;2024-01-30T10:31:58;102239.28;;;4.49;100.00
12349;BME280;5974;42.710;27.258;2024-01-30T10:34:26;102244.00;;;4.25;100.00
12349;BME280;5974;42.710;27.258;2024-01-30T10:36:59;102245.31;;;4.48;100.00
12349;BME280;5974;42.710;27.258;2024-01-30T10:39:29;102259.66;;;4.31;100.00
12349;BME280;5974;42.710;27.258;2024-01-30T10:41:59;102249.94;;;4.19;100.00
12349;BME280;5974;42.710;27.258;2024-01-30T10:44:36;102234.22;;;4.09;100.00
12349;BME280;5974;42.710;27.258;2024-01-30T10:47:07;102237.22;;;4.31;100.00
12349;BME280;5974;42.710;27.258;2024-01-30T10:49:38;102228.25;;;4.59;100.00
12349;BME280;5974;42.710;27.258;2024-01-30T10:52:06;102237.09;;;4.24;100.00
12349;BME280;5974;42.710;27.258;2024-01-30T10:54:36;102235.34;;;4.23;100.00
12349;BME280;5974;42.710;27.258;2024-01-30T10:57:04;102238.16;;;4.35;100.00
12349;BME280;5974;42.710;27.258;2024-01-30T10:59:32;102238.38;;;4.47;100.00
12349;BME280;5974;42.710;27.258;2024-01-30T11:02:00;102242.50;;;4.36;100.00
12349;BME280;5974;42.710;27.258;2024-01-30T11:04:27;102255.34;;;4.31;100.00
12349;BME280;5974;42.710;27.258;2024-01-30T11:07:01;102233.19;;;4.46;100.00
12349;BME280;5974;42.710;27.258;2024-01-30T11:09:29;102212.16;;;4.29;100.00
12349;BME280;5974;42.710;27.258;2024-01-30T11:11:58;102213.25;;;4.42;100.00
12349;BME280;5974;42.710;27.258;2024-01-30T11:14:27;102225.09;;;4.29;100.00
12349;BME280;5974;42.710;27.258;2024-01-30T11:16:57;102215.69;;;4.32;100.00
12349;BME280;5974;42.710;27.258;2024-01-30T11:19:24;102209.19;;;4.56;100.00
12349;BME280;5974;42.710;27.258;2024-01-30T11:21:52;102209.63;;;4.81;100.00
12349;BME280;5974;42.710;27.258;2024-01-30T11:24:20;102202.66;;;4.76;100.00
12349;BME280;5974;42.710;27.258;2024-01-30T11:26:49;102210.28;;;4.68;100.00
12349;BME280;5974;42.710;27.258;2024-01-30T11:29:18;102208.28;;;4.52;100.00
12349;BME280;5974;42.710;27.258;2024-01-30T11:31:54;102189.28;;;4.53;100.00
12349;BME280;5974;42.710;27.258;2024-01-30T11:34:21;102188.34;;;4.50;100.00
12349;BME280;5974;42.710;27.258;2024-01-30T11:36:52;102185.91;;;4.59;100.00
12349;BME280;5974;42.710;27.258;2024-01-30T11:39:20;102178.97;;;4.56;100.00
12349;BME280;5974;42.710;27.258;2024-01-30T11:41:51;102181.81;;;4.71;100.00
12349;BME280;5974;42.710;27.258;2024-01-30T11:44:20;102186.50;;;4.92;100.00
12349;BME280;5974;42.710;27.258;2024-01-30T11:46:47;102188.75;;;4.72;100.00
12349;BME280;5974;42.710;27.258;2024-01-30T11:49:15;102177.41;;;4.64;100.00
12349;BME280;5974;42.710;27.258;2024-01-30T11:51:42;102183.13;;;4.47;100.00
12349;BME280;5974;42.710;27.258;2024-01-30T11:54:09;102184.97;;;4.52;100.00
12349;BME280;5974;42.710;27.258;2024-01-30T11:56:37;102182.50;;;4.60;100.00
12349;BME280;5974;42.710;27.258;2024-01-30T11:59:04;102186.06;;;4.68;100.00
12349;BME280;5974;42.710;27.258;2024-01-30T12:01:32;102181.81;;;4.71;100.00
12349;BME280;5974;42.710;27.258;2024-01-30T12:03:59;102173.16;;;4.71;100.00
12349;BME280;5974;42.710;27.258;2024-01-30T12:06:26;102160.22;;;4.69;100.00
12349;BME280;5974;42.710;27.258;2024-01-30T12:08:57;102171.09;;;5.03;100.00
12349;BME280;5974;42.710;27.258;2024-01-30T12:11:25;102164.16;;;5.02;100.00
12349;BME280;5974;42.710;27.258;2024-01-30T12:13:52;102169.28;;;4.99;100.00
12349;BME280;5974;42.710;27.258;2024-01-30T12:16:19;102174.47;;;4.97;100.00
12349;BME280;5974;42.710;27.258;2024-01-30T12:18:48;102164.16;;;5.00;100.00
12349;BME280;5974;42.710;27.258;2024-01-30T12:21:16;102168.53;;;5.04;100.00
12349;BME280;5974;42.710;27.258;2024-01-30T12:23:44;102168.31;;;4.89;100.00
12349;BME280;5974;42.710;27.258;2024-01-30T12:26:11;102168.28;;;4.87;100.00
12349;BME280;5974;42.710;27.258;2024-01-30T12:28:48;102170.84;;;4.86;100.00
12349;BME280;5974;42.710;27.258;2024-01-30T12:31:15;102180.25;;;4.81;100.00
12349;BME280;5974;42.710;27.258;2024-01-30T12:33:42;102167.19;;;4.73;100.00
12349;BME280;5974;42.710;27.258;2024-01-30T12:36:11;102173.44;;;4.86;100.00
12349;BME280;5974;42.710;27.258;2024-01-30T12:38:38;102156.28;;;4.94;100.00
12349;BME280;5974;42.710;27.258;2024-01-30T12:41:07;102155.53;;;5.03;100.00
12349;BME280;5974;42.710;27.258;2024-01-30T12:43:35;102155.50;;;4.98;100.00
12349;BME280;5974;42.710;27.258;2024-01-30T12:46:02;102150.50;;;5.12;100.00
12349;BME280;5974;42.710;27.258;2024-01-30T12:48:29;102151.25;;;5.05;100.00
12349;BME280;5974;42.710;27.258;2024-01-30T12:50:56;102153.09;;;5.12;100.00